sensor_id;sensor_type;location;lat;lon;timestamp;pressure;altitude;pressure_sealevel;temperature;humidity
13954;BME280;7049;49.444;8.522;2023-05-12T00:00:24;-11160.47;;;-3.47;100.00
13954;BME280;7049;49.444;8.522;2023-05-12T00:05:26;-11160.47;;;-3.47;100.00
13954;BME280;7049;49.444;8.522;2023-05-12T00:10:28;-11160.47;;;-3.47;100.00
13954;BME280;7049;49.444;8.522;2023-05-12T00:15:30;-11160.47;;;-3.47;100.00
13954;BME280;7049;49.444;8.522;2023-05-12T00:20:33;-11160.47;;;-3.47;100.00
13954;BME280;7049;49.444;8.522;2023-05-12T00:25:34;-11160.47;;;-3.47;100.00
13954;BME280;7049;49.444;8.522;2023-05-12T00:30:36;-11160.47;;;-3.47;100.00
13954;BME280;7049;49.444;8.522;2023-05-12T00:35:39;-11160.47;;;-3.47;100.00
13954;BME280;7049;49.444;8.522;2023-05-12T00:40:40;-11160.47;;;-3.47;100.00
13954;BME280;7049;49.444;8.522;2023-05-12T00:45:42;-11160.47;;;-3.47;100.00
13954;BME280;7049;49.444;8.522;2023-05-12T00:50:45;-11160.47;;;-3.47;100.00
13954;BME280;7049;49.444;8.522;2023-05-12T00:55:46;-11160.47;;;-3.47;100.00
13954;BME280;7049;49.444;8.522;2023-05-12T01:00:48;-11160.47;;;-3.47;100.00
13954;BME280;7049;49.444;8.522;2023-05-12T01:05:55;-11160.47;;;-3.47;100.00
13954;BME280;7049;49.444;8.522;2023-05-12T01:10:59;-11160.47;;;-3.47;100.00
13954;BME280;7049;49.444;8.522;2023-05-12T01:16:01;-11160.47;;;-3.47;100.00
13954;BME280;7049;49.444;8.522;2023-05-12T01:21:09;-11160.47;;;-3.47;100.00
13954;BME280;7049;49.444;8.522;2023-05-12T01:26:14;-11160.47;;;-3.47;100.00
13954;BME280;7049;49.444;8.522;2023-05-12T01:31:16;-11160.47;;;-3.47;100.00
13954;BME280;7049;49.444;8.522;2023-05-12T01:36:17;-11160.47;;;-3.47;100.00
13954;BME280;7049;49.444;8.522;2023-05-12T01:41:20;-11160.47;;;-3.47;100.00
13954;BME280;7049;49.444;8.522;2023-05-12T01:46:22;-11160.47;;;-3.47;100.00
13954;BME280;7049;49.444;8.522;2023-05-12T01:51:23;-11160.47;;;-3.47;100.00
13954;BME280;7049;49.444;8.522;2023-05-12T01:56:26;-11160.47;;;-3.47;100.00
13954;BME280;7049;49.444;8.522;2023-05-12T02:01:28;-11160.47;;;-3.47;100.00
13954;BME280;7049;49.444;8.522;2023-05-12T02:06:31;-11160.47;;;-3.47;100.00
13954;BME280;7049;49.444;8.522;2023-05-12T02:11:34;-11160.47;;;-3.47;100.00
13954;BME280;7049;49.444;8.522;2023-05-12T02:16:35;-11160.47;;;-3.47;100.00
13954;BME280;7049;49.444;8.522;2023-05-12T02:21:37;-11160.47;;;-3.47;100.00
13954;BME280;7049;49.444;8.522;2023-05-12T02:26:40;-11160.47;;;-3.47;100.00
13954;BME280;7049;49.444;8.522;2023-05-12T02:31:41;-11160.47;;;-3.47;100.00
13954;BME280;7049;49.444;8.522;2023-05-12T02:36:42;-11160.47;;;-3.47;100.00
13954;BME280;7049;49.444;8.522;2023-05-12T02:41:45;-11160.47;;;-3.47;100.00
13954;BME280;7049;49.444;8.522;2023-05-12T02:46:47;-11160.47;;;-3.47;100.00
13954;BME280;7049;49.444;8.522;2023-05-12T02:51:48;-11160.47;;;-3.47;100.00
13954;BME280;7049;49.444;8.522;2023-05-12T02:56:51;-11160.47;;;-3.47;100.00
13954;BME280;7049;49.444;8.522;2023-05-12T03:01:52;-11160.47;;;-3.47;100.00
13954;BME280;7049;49.444;8.522;2023-05-12T03:06:53;-11160.47;;;-3.47;100.00
13954;BME280;7049;49.444;8.522;2023-05-12T03:11:56;-11160.47;;;-3.47;100.00
13954;BME280;7049;49.444;8.522;2023-05-12T03:16:58;-11160.47;;;-3.47;100.00
13954;BME280;7049;49.444;8.522;2023-05-12T03:21:59;-11160.47;;;-3.47;100.00
13954;BME280;7049;49.444;8.522;2023-05-12T03:27:02;-11160.47;;;-3.47;100.00
13954;BME280;7049;49.444;8.522;2023-05-12T03:32:05;-11160.47;;;-3.47;100.00
13954;BME280;7049;49.444;8.522;2023-05-12T03:37:06;-11160.47;;;-3.47;100.00
13954;BME280;7049;49.444;8.522;2023-05-12T03:42:09;-11160.47;;;-3.47;100.00
13954;BME280;7049;49.444;8.522;2023-05-12T03:47:11;-11160.47;;;-3.47;100.00
13954;BME280;7049;49.444;8.522;2023-05-12T03:52:12;-11160.47;;;-3.47;100.00
13954;BME280;7049;49.444;8.522;2023-05-12T03:57:15;-11160.47;;;-3.47;100.00
13954;BME280;7049;49.444;8.522;2023-05-12T04:02:17;-11160.47;;;-3.47;100.00
13954;BME280;7049;49.444;8.522;2023-05-12T04:07:19;-11160.47;;;-3.47;100.00
13954;BME280;7049;49.444;8.522;2023-05-12T04:12:22;-11160.47;;;-3.47;100.00
13954;BME280;7049;49.444;8.522;2023-05-12T04:17:23;-11160.47;;;-3.47;100.00
13954;BME280;7049;49.444;8.522;2023-05-12T04:22:24;-11160.47;;;-3.47;100.00
13954;BME280;7049;49.444;8.522;2023-05-12T04:27:27;-11160.47;;;-3.47;100.00
13954;BME280;7049;49.444;8.522;2023-05-12T04:32:29;-11160.47;;;-3.47;100.00
13954;BME280;7049;49.444;8.522;2023-05-12T04:37:30;-11160.47;;;-3.47;100.00
13954;BME280;7049;49.444;8.522;2023-05-12T04:42:33;-11160.47;;;-3.47;100.00
13954;BME280;7049;49.444;8.522;2023-05-12T04:47:34;-11160.47;;;-3.47;100.00
13954;BME280;7049;49.444;8.522;2023-05-12T04:52:36;-11160.47;;;-3.47;100.00
13954;BME280;7049;49.444;8.522;2023-05-12T04:57:39;-11160.47;;;-3.47;100.00
13954;BME280;7049;49.444;8.522;2023-05-12T05:02:40;-11160.47;;;-3.47;100.00
13954;BME280;7049;49.444;8.522;2023-05-12T05:07:42;-11160.47;;;-3.47;100.00
13954;BME280;7049;49.444;8.522;2023-05-12T05:12:44;-11160.47;;;-3.47;100.00
13954;BME280;7049;49.444;8.522;2023-05-12T05:17:46;-11160.47;;;-3.47;100.00
13954;BME280;7049;49.444;8.522;2023-05-12T05:22:48;-11160.47;;;-3.47;100.00
13954;BME280;7049;49.444;8.522;2023-05-12T05:27:51;-11160.47;;;-3.47;100.00
13954;BME280;7049;49.444;8.522;2023-05-12T05:32:53;-11160.47;;;-3.47;100.00
13954;BME280;7049;49.444;8.522;2023-05-12T05:37:54;-11160.47;;;-3.47;100.00
13954;BME280;7049;49.444;8.522;2023-05-12T05:42:57;-11160.47;;;-3.47;100.00
13954;BME280;7049;49.444;8.522;2023-05-12T05:47:58;-11160.47;;;-3.47;100.00
13954;BME280;7049;49.444;8.522;2023-05-12T05:53:00;-11160.47;;;-3.47;100.00
13954;BME280;7049;49.444;8.522;2023-05-12T05:58:02;-11160.47;;;-3.47;100.00
13954;BME280;7049;49.444;8.522;2023-05-12T06:03:04;-11160.47;;;-3.47;100.00
13954;BME280;7049;49.444;8.522;2023-05-12T06:08:05;-11160.47;;;-3.47;100.00
13954;BME280;7049;49.444;8.522;2023-05-12T06:13:09;-11160.47;;;-3.47;100.00
13954;BME280;7049;49.444;8.522;2023-05-12T06:18:11;-11160.47;;;-3.47;100.00
13954;BME280;7049;49.444;8.522;2023-05-12T06:23:12;-11160.47;;;-3.47;100.00
13954;BME280;7049;49.444;8.522;2023-05-12T06:28:15;-11160.47;;;-3.47;100.00
13954;BME280;7049;49.444;8.522;2023-05-12T06:33:16;-11160.47;;;-3.47;100.00
13954;BME280;7049;49.444;8.522;2023-05-12T06:38:18;-11160.47;;;-3.47;100.00
13954;BME280;7049;49.444;8.522;2023-05-12T06:43:21;-11160.47;;;-3.47;100.00
13954;BME280;7049;49.444;8.522;2023-05-12T06:48:22;-11160.47;;;-3.47;100.00
13954;BME280;7049;49.444;8.522;2023-05-12T06:53:24;-11160.47;;;-3.47;100.00
13954;BME280;7049;49.444;8.522;2023-05-12T06:58:27;-11160.47;;;-3.47;100.00
13954;BME280;7049;49.444;8.522;2023-05-12T07:03:30;-11160.47;;;-3.47;100.00
13954;BME280;7049;49.444;8.522;2023-05-12T07:08:31;-11160.47;;;-3.47;100.00
13954;BME280;7049;49.444;8.522;2023-05-12T07:13:34;-11160.47;;;-3.47;100.00
13954;BME280;7049;49.444;8.522;2023-05-12T07:18:37;-11160.47;;;-3.47;100.00
13954;BME280;7049;49.444;8.522;2023-05-12T07:23:38;-11160.47;;;-3.47;100.00
13954;BME280;7049;49.444;8.522;2023-05-12T07:28:41;-11160.47;;;-3.47;100.00
13954;BME280;7049;49.444;8.522;2023-05-12T07:33:43;-11160.47;;;-3.47;100.00
13954;BME280;7049;49.444;8.522;2023-05-12T07:38:44;-11160.47;;;-3.47;100.00
13954;BME280;7049;49.444;8.522;2023-05-12T07:43:47;-11160.47;;;-3.47;100.00
13954;BME280;7049;49.444;8.522;2023-05-12T07:48:48;-11160.47;;;-3.47;100.00
13954;BME280;7049;49.444;8.522;2023-05-12T07:53:50;-11160.47;;;-3.47;100.00
13954;BME280;7049;49.444;8.522;2023-05-12T07:58:53;-11160.47;;;-3.47;100.00
13954;BME280;7049;49.444;8.522;2023-05-12T08:03:55;-11160.47;;;-3.47;100.00
13954;BME280;7049;49.444;8.522;2023-05-12T08:08:56;-11160.47;;;-3.47;100.00
13954;BME280;7049;49.444;8.522;2023-05-12T08:13:59;-11160.47;;;-3.47;100.00
13954;BME280;7049;49.444;8.522;2023-05-12T08:19:00;-11160.47;;;-3.47;99.55
13954;BME280;7049;49.444;8.522;2023-05-12T08:24:02;-11160.47;;;-3.47;98.08
13954;BME280;7049;49.444;8.522;2023-05-12T08:29:05;-11160.47;;;-3.47;97.98
13954;BME280;7049;49.444;8.522;2023-05-12T08:34:07;-11160.47;;;-3.47;97.64
13954;BME280;7049;49.444;8.522;2023-05-12T08:39:09;-11160.47;;;-3.47;96.39
13954;BME280;7049;49.444;8.522;2023-05-12T08:44:12;-11160.47;;;-3.47;93.98
13954;BME280;7049;49.444;8.522;2023-05-12T08:49:16;-11160.47;;;-3.47;93.56
13954;BME280;7049;49.444;8.522;2023-05-12T08:54:21;-11160.47;;;-3.47;93.04
13954;BME280;7049;49.444;8.522;2023-05-12T08:59:27;-11160.47;;;-3.47;92.58
13954;BME280;7049;49.444;8.522;2023-05-12T09:04:30;-11160.47;;;-3.47;91.83
13954;BME280;7049;49.444;8.522;2023-05-12T09:09:35;-11160.47;;;-3.47;91.76
13954;BME280;7049;49.444;8.522;2023-05-12T09:14:39;-11160.47;;;-3.47;90.80
13954;BME280;7049;49.444;8.522;2023-05-12T09:19:43;-11160.47;;;-3.47;89.98
13954;BME280;7049;49.444;8.522;2023-05-12T09:24:45;-11160.47;;;-3.47;89.65
13954;BME280;7049;49.444;8.522;2023-05-12T09:29:54;-11160.47;;;-3.47;90.37
13954;BME280;7049;49.444;8.522;2023-05-12T09:35:01;-11160.47;;;-3.47;90.49
13954;BME280;7049;49.444;8.522;2023-05-12T09:40:07;-11160.47;;;-3.47;90.48
13954;BME280;7049;49.444;8.522;2023-05-12T09:45:16;-11160.47;;;-3.47;90.93
13954;BME280;7049;49.444;8.522;2023-05-12T09:50:18;-11160.47;;;-3.47;90.96
13954;BME280;7049;49.444;8.522;2023-05-12T09:55:22;-11160.47;;;-3.47;91.10
13954;BME280;7049;49.444;8.522;2023-05-12T10:00:31;-11160.47;;;-3.47;91.62
13954;BME280;7049;49.444;8.522;2023-05-12T10:05:33;-11160.47;;;-3.47;91.08
13954;BME280;7049;49.444;8.522;2023-05-12T10:10:36;-11160.47;;;-3.47;88.36
13954;BME280;7049;49.444;8.522;2023-05-12T10:15:41;-11160.47;;;-3.47;87.84
13954;BME280;7049;49.444;8.522;2023-05-12T10:20:45;-11160.47;;;-3.47;86.90
13954;BME280;7049;49.444;8.522;2023-05-12T10:25:48;-11160.47;;;-3.47;85.84
13954;BME280;7049;49.444;8.522;2023-05-12T10:30:57;-11160.47;;;-3.47;84.43
13954;BME280;7049;49.444;8.522;2023-05-12T10:35:59;-11160.47;;;-3.47;83.55
13954;BME280;7049;49.444;8.522;2023-05-12T10:41:04;-11160.47;;;-3.47;82.37
13954;BME280;7049;49.444;8.522;2023-05-12T10:46:14;-11160.47;;;-3.47;82.48
13954;BME280;7049;49.444;8.522;2023-05-12T10:51:18;-11160.47;;;-3.47;82.25
13954;BME280;7049;49.444;8.522;2023-05-12T10:56:21;-11160.47;;;-3.47;81.95
13954;BME280;7049;49.444;8.522;2023-05-12T11:01:24;-11160.47;;;-3.47;82.24
13954;BME280;7049;49.444;8.522;2023-05-12T11:06:26;-11160.47;;;-3.47;82.95
13954;BME280;7049;49.444;8.522;2023-05-12T11:11:28;-11160.47;;;-3.47;83.12
13954;BME280;7049;49.444;8.522;2023-05-12T11:16:31;-11160.47;;;-3.47;83.30
13954;BME280;7049;49.444;8.522;2023-05-12T11:21:33;-11160.47;;;-3.47;83.41
13954;BME280;7049;49.444;8.522;2023-05-12T11:26:35;-11160.47;;;-3.47;81.64
13954;BME280;7049;49.444;8.522;2023-05-12T11:31:37;-11160.47;;;-3.47;81.87
13954;BME280;7049;49.444;8.522;2023-05-12T11:36:40;-11160.47;;;-3.47;79.82
13954;BME280;7049;49.444;8.522;2023-05-12T11:41:42;-11160.47;;;-3.47;78.70
13954;BME280;7049;49.444;8.522;2023-05-12T11:46:56;-11160.47;;;-3.47;77.43
13954;BME280;7049;49.444;8.522;2023-05-12T11:51:59;-11160.47;;;-3.47;75.44
13954;BME280;7049;49.444;8.522;2023-05-12T11:57:01;-11160.47;;;-3.47;76.78
13954;BME280;7049;49.444;8.522;2023-05-12T12:02:04;-11160.47;;;-3.47;76.15
13954;BME280;7049;49.444;8.522;2023-05-12T12:07:06;-11160.47;;;-3.47;75.04
13954;BME280;7049;49.444;8.522;2023-05-12T12:12:09;-11160.47;;;-3.47;74.67
13954;BME280;7049;49.444;8.522;2023-05-12T12:17:12;-11160.47;;;-3.47;73.52
13954;BME280;7049;49.444;8.522;2023-05-12T12:22:13;-11160.47;;;-3.47;71.09
13954;BME280;7049;49.444;8.522;2023-05-12T12:27:15;-11160.47;;;-3.47;70.82
13954;BME280;7049;49.444;8.522;2023-05-12T12:32:18;-11160.47;;;-3.47;69.91
13954;BME280;7049;49.444;8.522;2023-05-12T12:37:19;-11160.47;;;-3.47;70.49
13954;BME280;7049;49.444;8.522;2023-05-12T12:42:20;-11160.47;;;-3.47;70.71
13954;BME280;7049;49.444;8.522;2023-05-12T12:47:23;-11160.47;;;-3.47;66.75
13954;BME280;7049;49.444;8.522;2023-05-12T12:52:25;-11160.47;;;-3.47;67.65
13954;BME280;7049;49.444;8.522;2023-05-12T12:57:27;-11160.47;;;-3.47;65.60
13954;BME280;7049;49.444;8.522;2023-05-12T13:02:29;-11160.47;;;-3.47;65.96
13954;BME280;7049;49.444;8.522;2023-05-12T13:07:31;-11160.47;;;-3.47;66.33
13954;BME280;7049;49.444;8.522;2023-05-12T13:12:33;-11160.47;;;-3.47;66.52
13954;BME280;7049;49.444;8.522;2023-05-12T13:17:37;-11160.47;;;-3.47;65.77
13954;BME280;7049;49.444;8.522;2023-05-12T13:22:41;-11160.47;;;-3.47;64.48
13954;BME280;7049;49.444;8.522;2023-05-12T13:27:43;-11160.47;;;-3.47;64.40
13954;BME280;7049;49.444;8.522;2023-05-12T13:32:46;-11160.47;;;-3.47;63.54
13954;BME280;7049;49.444;8.522;2023-05-12T13:37:47;-11160.47;;;-3.47;62.42
13954;BME280;7049;49.444;8.522;2023-05-12T13:42:49;-11160.47;;;-3.47;63.83
13954;BME280;7049;49.444;8.522;2023-05-12T13:47:52;-11160.47;;;-3.47;64.75
13954;BME280;7049;49.444;8.522;2023-05-12T13:52:53;-11160.47;;;-3.47;64.24
13954;BME280;7049;49.444;8.522;2023-05-12T13:57:54;-11160.47;;;-3.47;63.38
13954;BME280;7049;49.444;8.522;2023-05-12T14:02:57;-11160.47;;;-3.47;63.95
13954;BME280;7049;49.444;8.522;2023-05-12T14:07:59;-11160.47;;;-3.47;63.09
13954;BME280;7049;49.444;8.522;2023-05-12T14:13:00;-11160.47;;;-3.47;63.78
13954;BME280;7049;49.444;8.522;2023-05-12T14:18:03;-11160.47;;;-3.47;63.36
13954;BME280;7049;49.444;8.522;2023-05-12T14:23:04;-11160.47;;;-3.47;64.86
13954;BME280;7049;49.444;8.522;2023-05-12T14:28:06;-11160.47;;;-3.47;64.99
13954;BME280;7049;49.444;8.522;2023-05-12T14:33:08;-11160.47;;;-3.47;65.10
13954;BME280;7049;49.444;8.522;2023-05-12T14:38:10;-11160.47;;;-3.47;66.19
13954;BME280;7049;49.444;8.522;2023-05-12T14:43:11;-11160.47;;;-3.47;65.98
13954;BME280;7049;49.444;8.522;2023-05-12T14:48:14;-11160.47;;;-3.47;67.66
13954;BME280;7049;49.444;8.522;2023-05-12T14:53:15;-11160.47;;;-3.47;70.39
13954;BME280;7049;49.444;8.522;2023-05-12T14:58:17;-11160.47;;;-3.47;73.02
13954;BME280;7049;49.444;8.522;2023-05-12T15:03:22;-11160.47;;;-3.47;73.11
13954;BME280;7049;49.444;8.522;2023-05-12T15:08:24;-11160.47;;;-3.47;73.48
13954;BME280;7049;49.444;8.522;2023-05-12T15:13:26;-11160.47;;;-3.47;70.86
13954;BME280;7049;49.444;8.522;2023-05-12T15:18:28;-11160.47;;;-3.47;68.66
13954;BME280;7049;49.444;8.522;2023-05-12T15:23:30;-11160.47;;;-3.47;67.27
13954;BME280;7049;49.444;8.522;2023-05-12T15:28:31;-11160.47;;;-3.47;65.40
13954;BME280;7049;49.444;8.522;2023-05-12T15:33:34;-11160.47;;;-3.47;66.67
13954;BME280;7049;49.444;8.522;2023-05-12T15:38:36;-11160.47;;;-3.47;66.77
13954;BME280;7049;49.444;8.522;2023-05-12T15:43:38;-11160.47;;;-3.47;66.02
13954;BME280;7049;49.444;8.522;2023-05-12T15:48:41;-11160.47;;;-3.47;66.17
13954;BME280;7049;49.444;8.522;2023-05-12T15:53:42;-11160.47;;;-3.47;68.11
13954;BME280;7049;49.444;8.522;2023-05-12T15:58:44;-11160.47;;;-3.47;68.37
13954;BME280;7049;49.444;8.522;2023-05-12T16:03:48;-11160.47;;;-3.47;69.51
13954;BME280;7049;49.444;8.522;2023-05-12T16:08:51;-11160.47;;;-3.47;70.06
13954;BME280;7049;49.444;8.522;2023-05-12T16:13:54;-11160.47;;;-3.47;70.97
13954;BME280;7049;49.444;8.522;2023-05-12T16:18:59;-11160.47;;;-3.47;69.12
13954;BME280;7049;49.444;8.522;2023-05-12T16:24:04;-11160.47;;;-3.47;69.63
13954;BME280;7049;49.444;8.522;2023-05-12T16:29:06;-11160.47;;;-3.47;69.45
13954;BME280;7049;49.444;8.522;2023-05-12T16:34:10;-11160.47;;;-3.47;69.53
13954;BME280;7049;49.444;8.522;2023-05-12T16:39:12;-11160.47;;;-3.47;70.22
13954;BME280;7049;49.444;8.522;2023-05-12T16:44:15;-11160.47;;;-3.47;71.07
13954;BME280;7049;49.444;8.522;2023-05-12T16:49:21;-11160.47;;;-3.47;71.83
13954;BME280;7049;49.444;8.522;2023-05-12T16:54:23;-11160.47;;;-3.47;73.77
13954;BME280;7049;49.444;8.522;2023-05-12T16:59:28;-11160.47;;;-3.47;75.44
13954;BME280;7049;49.444;8.522;2023-05-12T17:04:33;-11160.47;;;-3.47;76.58
13954;BME280;7049;49.444;8.522;2023-05-12T17:09:35;-11160.47;;;-3.47;77.51
13954;BME280;7049;49.444;8.522;2023-05-12T17:14:37;-11160.47;;;-3.47;78.56
13954;BME280;7049;49.444;8.522;2023-05-12T17:19:39;-11160.47;;;-3.47;79.50
13954;BME280;7049;49.444;8.522;2023-05-12T17:24:42;-11160.47;;;-3.47;80.58
13954;BME280;7049;49.444;8.522;2023-05-12T17:29:43;-11160.47;;;-3.47;79.61
13954;BME280;7049;49.444;8.522;2023-05-12T17:34:48;-11160.47;;;-3.47;78.60
13954;BME280;7049;49.444;8.522;2023-05-12T17:39:50;-11160.47;;;-3.47;78.14
13954;BME280;7049;49.444;8.522;2023-05-12T17:44:51;-11160.47;;;-3.47;78.16
13954;BME280;7049;49.444;8.522;2023-05-12T17:49:54;-11160.47;;;-3.47;77.66
13954;BME280;7049;49.444;8.522;2023-05-12T17:54:56;-11160.47;;;-3.47;75.07
13954;BME280;7049;49.444;8.522;2023-05-12T17:59:57;-11160.47;;;-3.47;74.89
13954;BME280;7049;49.444;8.522;2023-05-12T18:05:00;-11160.47;;;-3.47;75.10
13954;BME280;7049;49.444;8.522;2023-05-12T18:10:05;-11160.47;;;-3.47;75.54
13954;BME280;7049;49.444;8.522;2023-05-12T18:15:10;-11160.47;;;-3.47;73.14
13954;BME280;7049;49.444;8.522;2023-05-12T18:20:14;-11160.47;;;-3.47;73.60
13954;BME280;7049;49.444;8.522;2023-05-12T18:25:17;-11160.47;;;-3.47;73.81
13954;BME280;7049;49.444;8.522;2023-05-12T18:30:19;-11160.47;;;-3.47;74.66
13954;BME280;7049;49.444;8.522;2023-05-12T18:35:23;-11160.47;;;-3.47;74.28
13954;BME280;7049;49.444;8.522;2023-05-12T18:40:26;-11160.47;;;-3.47;73.98
13954;BME280;7049;49.444;8.522;2023-05-12T18:45:28;-11160.47;;;-3.47;74.93
13954;BME280;7049;49.444;8.522;2023-05-12T18:50:32;-11160.47;;;-3.47;74.97
13954;BME280;7049;49.444;8.522;2023-05-12T18:55:35;-11160.47;;;-3.47;75.25
13954;BME280;7049;49.444;8.522;2023-05-12T19:00:38;-11160.47;;;-3.47;75.21
13954;BME280;7049;49.444;8.522;2023-05-12T19:05:42;-11160.47;;;-3.47;76.69
13954;BME280;7049;49.444;8.522;2023-05-12T19:10:47;-11160.47;;;-3.47;76.97
13954;BME280;7049;49.444;8.522;2023-05-12T19:15:49;-11160.47;;;-3.47;76.79
13954;BME280;7049;49.444;8.522;2023-05-12T19:20:53;-11160.47;;;-3.47;77.45
13954;BME280;7049;49.444;8.522;2023-05-12T19:25:55;-11160.47;;;-3.47;77.29
13954;BME280;7049;49.444;8.522;2023-05-12T19:31:08;-11160.47;;;-3.47;77.46
13954;BME280;7049;49.444;8.522;2023-05-12T19:36:13;-11160.47;;;-3.47;77.51
13954;BME280;7049;49.444;8.522;2023-05-12T19:41:16;-11160.47;;;-3.47;78.02
13954;BME280;7049;49.444;8.522;2023-05-12T19:46:18;-11160.47;;;-3.47;77.80
13954;BME280;7049;49.444;8.522;2023-05-12T19:51:22;-11160.47;;;-3.47;78.77
13954;BME280;7049;49.444;8.522;2023-05-12T19:56:24;-11160.47;;;-3.47;78.84
13954;BME280;7049;49.444;8.522;2023-05-12T20:01:26;-11160.47;;;-3.47;78.36
13954;BME280;7049;49.444;8.522;2023-05-12T20:06:29;-11160.47;;;-3.47;78.37
13954;BME280;7049;49.444;8.522;2023-05-12T20:11:31;-11160.47;;;-3.47;78.11
13954;BME280;7049;49.444;8.522;2023-05-12T20:16:33;-11160.47;;;-3.47;78.00
13954;BME280;7049;49.444;8.522;2023-05-12T20:21:36;-11160.47;;;-3.47;78.70
13954;BME280;7049;49.444;8.522;2023-05-12T20:26:37;-11160.47;;;-3.47;79.09
13954;BME280;7049;49.444;8.522;2023-05-12T20:31:39;-11160.47;;;-3.47;80.40
13954;BME280;7049;49.444;8.522;2023-05-12T20:36:42;-11160.47;;;-3.47;80.85
13954;BME280;7049;49.444;8.522;2023-05-12T20:41:44;-11160.47;;;-3.47;81.18
13954;BME280;7049;49.444;8.522;2023-05-12T20:46:45;-11160.47;;;-3.47;81.76
13954;BME280;7049;49.444;8.522;2023-05-12T20:51:48;-11160.47;;;-3.47;82.26
13954;BME280;7049;49.444;8.522;2023-05-12T20:56:50;-11160.47;;;-3.47;82.43
13954;BME280;7049;49.444;8.522;2023-05-12T21:01:51;-11160.47;;;-3.47;83.00
13954;BME280;7049;49.444;8.522;2023-05-12T21:06:54;-11160.47;;;-3.47;83.18
13954;BME280;7049;49.444;8.522;2023-05-12T21:11:56;-11160.47;;;-3.47;83.34
13954;BME280;7049;49.444;8.522;2023-05-12T21:16:58;-11160.47;;;-3.47;83.85
13954;BME280;7049;49.444;8.522;2023-05-12T21:22:01;-11160.47;;;-3.47;84.03
13954;BME280;7049;49.444;8.522;2023-05-12T21:27:04;-11160.47;;;-3.47;84.22
13954;BME280;7049;49.444;8.522;2023-05-12T21:32:06;-11160.47;;;-3.47;83.89
13954;BME280;7049;49.444;8.522;2023-05-12T21:37:09;-11160.47;;;-3.47;84.08
13954;BME280;7049;49.444;8.522;2023-05-12T21:42:11;-11160.47;;;-3.47;84.07
13954;BME280;7049;49.444;8.522;2023-05-12T21:47:12;-11160.47;;;-3.47;84.26
13954;BME280;7049;49.444;8.522;2023-05-12T21:52:15;-11160.47;;;-3.47;84.77
13954;BME280;7049;49.444;8.522;2023-05-12T21:57:18;-11160.47;;;-3.47;85.27
13954;BME280;7049;49.444;8.522;2023-05-12T22:02:20;-11160.47;;;-3.47;85.77
13954;BME280;7049;49.444;8.522;2023-05-12T22:07:23;-11160.47;;;-3.47;86.30
13954;BME280;7049;49.444;8.522;2023-05-12T22:12:24;-11160.47;;;-3.47;86.79
13954;BME280;7049;49.444;8.522;2023-05-12T22:17:25;-11160.47;;;-3.47;87.51
13954;BME280;7049;49.444;8.522;2023-05-12T22:22:28;-11160.47;;;-3.47;87.91
13954;BME280;7049;49.444;8.522;2023-05-12T22:27:30;-11160.47;;;-3.47;88.36
13954;BME280;7049;49.444;8.522;2023-05-12T22:32:32;-11160.47;;;-3.47;88.95
13954;BME280;7049;49.444;8.522;2023-05-12T22:37:35;-11160.47;;;-3.47;89.49
13954;BME280;7049;49.444;8.522;2023-05-12T22:42:37;-11160.47;;;-3.47;89.92
13954;BME280;7049;49.444;8.522;2023-05-12T22:47:38;-11160.47;;;-3.47;90.17
13954;BME280;7049;49.444;8.522;2023-05-12T22:52:41;-11160.47;;;-3.47;90.40
13954;BME280;7049;49.444;8.522;2023-05-12T22:57:42;-11160.47;;;-3.47;90.40
13954;BME280;7049;49.444;8.522;2023-05-12T23:02:45;-11160.47;;;-3.47;90.65
13954;BME280;7049;49.444;8.522;2023-05-12T23:07:47;-11160.47;;;-3.47;90.80
13954;BME280;7049;49.444;8.522;2023-05-12T23:12:49;-11160.47;;;-3.47;91.16
13954;BME280;7049;49.444;8.522;2023-05-12T23:17:50;-11160.47;;;-3.47;91.52
13954;BME280;7049;49.444;8.522;2023-05-12T23:22:53;-11160.47;;;-3.47;91.84
13954;BME280;7049;49.444;8.522;2023-05-12T23:27:55;-11160.47;;;-3.47;92.25
13954;BME280;7049;49.444;8.522;2023-05-12T23:32:56;-11160.47;;;-3.47;92.58
13954;BME280;7049;49.444;8.522;2023-05-12T23:37:59;-11160.47;;;-3.47;92.79
13954;BME280;7049;49.444;8.522;2023-05-12T23:43:00;-11160.47;;;-3.47;92.82
13954;BME280;7049;49.444;8.522;2023-05-12T23:48:02;-11160.47;;;-3.47;92.85
13954;BME280;7049;49.444;8.522;2023-05-12T23:53:05;-11160.47;;;-3.47;92.94
13954;BME280;7049;49.444;8.522;2023-05-12T23:58:07;-11160.47;;;-3.47;92.92
